createdAt,value
2016-04-01T00:00:28.534Z,0
2016-04-01T00:01:30.959Z,0
2016-04-01T00:02:28.353Z,0
2016-04-01T00:03:30.964Z,0
2016-04-01T00:04:27.811Z,0
2016-04-01T00:05:25.092Z,0
2016-04-01T00:06:30.738Z,0
2016-04-01T00:07:28.225Z,0
2016-04-01T00:08:28.041Z,0
2016-04-01T00:09:30.621Z,0
2016-04-01T00:10:24.574Z,0
2016-04-01T00:11:24.499Z,0
2016-04-01T00:12:29.192Z,0
2016-04-01T00:13:24.817Z,0
2016-04-01T00:14:27.697Z,0
2016-04-01T00:15:27.527Z,0
2016-04-01T00:16:27.719Z,0
2016-04-01T00:17:27.424Z,0
2016-04-01T00:18:30.223Z,0
2016-04-01T00:19:24.145Z,0
2016-04-01T00:20:24.102Z,0
2016-04-01T00:21:27.075Z,0
2016-04-01T00:22:27.032Z,0
2016-04-01T00:23:23.969Z,0
2016-04-01T00:24:23.956Z,0
2016-04-01T00:25:23.881Z,0
2016-04-01T00:26:24.134Z,0
2016-04-01T00:27:24.073Z,0
2016-04-01T00:28:26.951Z,0
2016-04-01T00:29:23.703Z,0
2016-04-01T00:30:23.659Z,0
2016-04-01T00:31:26.631Z,0
2016-04-01T00:32:26.570Z,0
2016-04-01T00:33:26.746Z,0
2016-04-01T00:34:33.922Z,0
2016-04-01T00:35:29.317Z,0
2016-04-01T00:36:29.444Z,0
2016-04-01T00:37:33.774Z,0
2016-04-01T00:38:32.512Z,0
2016-04-01T00:39:23.450Z,0
2016-04-01T00:40:26.514Z,0
2016-04-01T00:41:23.158Z,0
2016-04-01T00:42:26.114Z,0
2016-04-01T00:43:27.478Z,0
2016-04-01T00:44:29.480Z,0
2016-04-01T00:45:22.965Z,0
2016-04-01T00:46:28.815Z,0
2016-04-01T00:47:26.221Z,0
2016-04-01T00:48:23.098Z,0
2016-04-01T00:49:23.023Z,0
2016-04-01T00:50:27.669Z,0
2016-04-01T00:51:22.732Z,0
2016-04-01T00:52:22.969Z,0
2016-04-01T00:53:22.831Z,0
2016-04-01T00:54:28.633Z,0
2016-04-01T00:55:22.540Z,0
2016-04-01T00:56:22.480Z,0
2016-04-01T00:57:25.435Z,0
2016-04-01T00:58:25.391Z,0
2016-04-01T00:59:28.428Z,0
2016-04-01T01:00:28.306Z,0
2016-04-01T01:01:25.571Z,0
2016-04-01T01:02:31.217Z,0
2016-04-01T01:03:28.314Z,0
2016-04-01T01:04:22.142Z,0
2016-04-01T01:05:22.098Z,0
2016-04-01T01:06:25.053Z,0
2016-04-01T01:07:22.181Z,0
2016-04-01T01:08:24.917Z,0
2016-04-01T01:09:21.889Z,0
2016-04-01T01:10:25.033Z,0
2016-04-01T01:11:24.848Z,0
2016-04-01T01:12:24.803Z,0
2016-04-01T01:13:24.760Z,0
2016-04-01T01:14:27.874Z,0
2016-04-01T01:15:21.655Z,0
2016-04-01T01:16:21.564Z,0
2016-04-01T01:17:21.536Z,0
2016-04-01T01:18:27.851Z,0
2016-04-01T01:19:21.713Z,0
2016-04-01T01:20:24.388Z,0
2016-04-01T01:21:21.359Z,0
2016-04-01T01:22:24.330Z,0
2016-04-01T01:23:21.662Z,0
2016-04-01T01:24:24.210Z,0
2016-04-01T01:25:24.182Z,0
2016-04-01T01:26:24.326Z,0
2016-04-01T01:27:21.047Z,0
2016-04-01T01:28:24.768Z,0
2016-04-01T01:29:21.021Z,0
2016-04-01T01:30:26.946Z,0
2016-04-01T01:31:26.933Z,0
2016-04-01T01:32:23.857Z,0
2016-04-01T01:33:23.689Z,0
2016-04-01T01:34:24.066Z,0
2016-04-01T01:35:24.053Z,0
2016-04-01T01:36:20.977Z,0
2016-04-01T01:37:24.120Z,0
2016-04-01T01:38:20.577Z,0
2016-04-01T01:39:20.548Z,0
2016-04-01T01:40:26.503Z,0
2016-04-01T01:41:23.741Z,0
2016-04-01T01:42:23.822Z,0
2016-04-01T01:43:24.230Z,0
2016-04-01T01:44:23.733Z,0
2016-04-01T01:45:20.282Z,0
2016-04-01T01:46:20.224Z,0
2016-04-01T01:47:23.163Z,0
2016-04-01T01:48:20.400Z,0
2016-04-01T01:49:20.388Z,0
2016-04-01T01:50:20.030Z,0
2016-04-01T01:51:20.612Z,0
2016-04-01T01:52:20.177Z,0
2016-04-01T01:53:20.101Z,0
2016-04-01T01:54:23.073Z,0
2016-04-01T01:55:19.826Z,0
2016-04-01T01:56:23.188Z,0
2016-04-01T01:57:22.737Z,0
2016-04-01T01:58:22.677Z,0
2016-04-01T01:59:19.618Z,0
2016-04-01T02:00:19.589Z,0
2016-04-01T02:01:19.545Z,0
2016-04-01T02:02:19.516Z,0
2016-04-01T02:03:22.800Z,0
2016-04-01T02:04:19.725Z,0
2016-04-01T02:05:22.383Z,0
2016-04-01T02:06:19.308Z,0
2016-04-01T02:07:28.108Z,0
2016-04-01T02:08:22.412Z,0
2016-04-01T02:09:25.196Z,0
2016-04-01T02:10:22.167Z,0
2016-04-01T02:11:22.092Z,0
2016-04-01T02:12:19.033Z,0
2016-04-01T02:13:18.988Z,0
2016-04-01T02:14:18.960Z,0
2016-04-01T02:15:18.915Z,0
2016-04-01T02:16:21.887Z,0
2016-04-01T02:17:28.155Z,0
2016-04-01T02:18:30.942Z,0
2016-04-01T02:19:24.739Z,0
2016-04-01T02:20:24.991Z,0
2016-04-01T02:21:28.071Z,0
2016-04-01T02:22:21.809Z,0
2016-04-01T02:23:24.546Z,0
2016-04-01T02:24:24.924Z,0
2016-04-01T02:25:27.692Z,0
2016-04-01T02:26:21.414Z,0
2016-04-01T02:27:21.557Z,0
2016-04-01T02:28:18.607Z,0
2016-04-01T02:29:24.985Z,0
2016-04-01T02:30:21.721Z,0
2016-04-01T02:31:24.490Z,0
2016-04-01T02:32:17.976Z,0
2016-04-01T02:33:23.964Z,0
2016-04-01T02:34:24.060Z,0
2016-04-01T02:35:21.391Z,0
2016-04-01T02:36:24.191Z,0
2016-04-01T02:37:18.115Z,0
2016-04-01T02:38:18.056Z,0
2016-04-01T02:39:17.824Z,0
2016-04-01T02:40:17.795Z,0
2016-04-01T02:41:17.813Z,0
2016-04-01T02:42:20.738Z,0
2016-04-01T02:43:17.834Z,0
2016-04-01T02:44:20.587Z,0
2016-04-01T02:45:20.543Z,0
2016-04-01T02:46:18.013Z,0
2016-04-01T02:47:17.438Z,0
2016-04-01T02:48:17.473Z,0
2016-04-01T02:49:20.381Z,0
2016-04-01T02:50:20.368Z,0
2016-04-01T02:51:17.277Z,0
2016-04-01T02:52:17.265Z,0
2016-04-01T02:53:23.174Z,0
2016-04-01T02:54:20.755Z,0
2016-04-01T02:55:20.085Z,0
2016-04-01T02:56:20.088Z,0
2016-04-01T02:57:20.029Z,0
2016-04-01T02:58:17.750Z,0
2016-04-01T02:59:16.924Z,0
2016-04-01T03:00:16.865Z,0
2016-04-01T03:01:19.836Z,0
2016-04-01T03:02:22.807Z,0
2016-04-01T03:03:22.810Z,0
2016-04-01T03:04:19.734Z,0
2016-04-01T03:05:16.831Z,0
2016-04-01T03:06:22.630Z,0
2016-04-01T03:07:16.884Z,0
2016-04-01T03:08:16.527Z,0
2016-04-01T03:09:25.466Z,0
2016-04-01T03:10:22.408Z,0
2016-04-01T03:11:16.347Z,0
2016-04-01T03:12:19.303Z,0
2016-04-01T03:13:22.306Z,0
2016-04-01T03:14:19.746Z,0
2016-04-01T03:15:31.438Z,0
2016-04-01T03:16:16.329Z,0
2016-04-01T03:17:16.097Z,0
2016-04-01T03:18:19.037Z,0
2016-04-01T03:19:19.196Z,0
2016-04-01T03:20:17.043Z,0
2016-04-01T03:21:21.905Z,0
2016-04-01T03:22:18.877Z,0
2016-04-01T03:23:18.863Z,0
2016-04-01T03:24:15.804Z,0
2016-04-01T03:25:19.135Z,0
2016-04-01T03:26:15.684Z,0
2016-04-01T03:27:15.656Z,0
2016-04-01T03:28:15.581Z,0
2016-04-01T03:29:15.537Z,0
2016-04-01T03:30:16.414Z,0
2016-04-01T03:31:15.432Z,0
2016-04-01T03:32:14.638Z,0
2016-04-01T03:33:24.595Z,0
2016-04-01T03:34:21.627Z,0
2016-04-01T03:35:18.286Z,0
2016-04-01T03:36:18.273Z,0
2016-04-01T03:37:21.401Z,0
2016-04-01T03:38:18.139Z,0
2016-04-01T03:39:18.297Z,0
2016-04-01T03:40:15.331Z,0
2016-04-01T03:41:15.053Z,0
2016-04-01T03:42:17.977Z,0
2016-04-01T03:43:17.933Z,0
2016-04-01T03:44:17.874Z,0
2016-04-01T03:45:14.908Z,0
2016-04-01T03:46:14.800Z,0
2016-04-01T03:47:17.788Z,0
2016-04-01T03:48:18.619Z,0
2016-04-01T03:49:14.637Z,0
2016-04-01T03:50:17.624Z,0
2016-04-01T03:51:14.533Z,0
2016-04-01T03:52:17.504Z,0
2016-04-01T03:53:17.804Z,0
2016-04-01T03:54:14.604Z,0
2016-04-01T03:55:14.341Z,0
2016-04-01T03:56:17.312Z,0
2016-04-01T03:57:14.267Z,0
2016-04-01T03:58:14.426Z,0
2016-04-01T03:59:20.585Z,0
2016-04-01T04:00:20.337Z,0
2016-04-01T04:01:14.090Z,0
2016-04-01T04:02:14.031Z,0
2016-04-01T04:03:20.034Z,0
2016-04-01T04:04:14.146Z,0
2016-04-01T04:05:14.211Z,0
2016-04-01T04:06:16.886Z,0
2016-04-01T04:07:13.811Z,0
2016-04-01T04:08:14.063Z,0
2016-04-01T04:09:16.737Z,0
2016-04-01T04:10:13.678Z,0
2016-04-01T04:11:16.649Z,0
2016-04-01T04:12:16.777Z,0
2016-04-01T04:13:13.530Z,0
2016-04-01T04:14:13.500Z,0
2016-04-01T04:15:16.675Z,0
2016-04-01T04:16:16.428Z,0
2016-04-01T04:17:13.384Z,0
2016-04-01T04:18:13.324Z,0
2016-04-01T04:19:13.452Z,0
2016-04-01T04:20:13.424Z,0
2016-04-01T04:21:19.207Z,0
2016-04-01T04:22:16.163Z,0
2016-04-01T04:23:22.072Z,0
2016-04-01T04:24:13.028Z,0
2016-04-01T04:25:19.030Z,0
2016-04-01T04:26:15.940Z,0
2016-04-01T04:27:12.740Z,0
2016-04-01T04:28:12.868Z,0
2016-04-01T04:29:12.870Z,0
2016-04-01T04:30:12.966Z,0
2016-04-01T04:31:12.719Z,0
2016-04-01T04:32:12.690Z,0
2016-04-01T04:33:15.662Z,0
2016-04-01T04:34:13.086Z,0
2016-04-01T04:35:15.745Z,0
2016-04-01T04:36:15.514Z,0
2016-04-01T04:37:12.469Z,0
2016-04-01T04:38:12.440Z,0
2016-04-01T04:39:15.397Z,0
2016-04-01T04:40:12.336Z,0
2016-04-01T04:41:18.292Z,0
2016-04-01T04:42:12.405Z,0
2016-04-01T04:43:15.564Z,0
2016-04-01T04:44:15.129Z,0
2016-04-01T04:45:12.084Z,0
2016-04-01T04:46:15.025Z,0
2016-04-01T04:47:18.011Z,0
2016-04-01T04:48:14.952Z,0
2016-04-01T04:49:11.892Z,0
2016-04-01T04:50:11.863Z,0
2016-04-01T04:51:17.835Z,0
2016-04-01T04:52:17.760Z,0
2016-04-01T04:53:17.777Z,0
2016-04-01T04:54:11.671Z,0
2016-04-01T04:55:11.955Z,0
2016-04-01T04:56:14.926Z,0
2016-04-01T04:57:14.539Z,0
2016-04-01T04:58:11.510Z,0
2016-04-01T04:59:11.450Z,0
2016-04-01T05:00:11.407Z,0
2016-04-01T05:01:14.331Z,0
2016-04-01T05:02:14.348Z,0
2016-04-01T05:03:11.462Z,0
2016-04-01T05:04:14.432Z,0
2016-04-01T05:05:11.185Z,0
2016-04-01T05:06:11.125Z,0
2016-04-01T05:07:11.081Z,0
2016-04-01T05:08:11.099Z,0
2016-04-01T05:09:11.273Z,0
2016-04-01T05:10:11.261Z,0
2016-04-01T05:11:13.920Z,0
2016-04-01T05:12:10.860Z,0
2016-04-01T05:13:13.848Z,0
2016-04-01T05:14:10.772Z,0
2016-04-01T05:15:13.696Z,0
2016-04-01T05:16:13.668Z,0
2016-04-01T05:17:10.624Z,0
2016-04-01T05:18:10.610Z,0
2016-04-01T05:19:13.566Z,0
2016-04-01T05:20:13.522Z,0
2016-04-01T05:21:11.338Z,0
2016-04-01T05:22:13.434Z,0
2016-04-01T05:23:13.561Z,0
2016-04-01T05:24:19.314Z,0
2016-04-01T05:25:10.271Z,0
2016-04-01T05:26:16.274Z,0
2016-04-01T05:27:10.182Z,0
2016-04-01T05:28:16.543Z,0
2016-04-01T05:29:13.077Z,0
2016-04-01T05:30:13.065Z,0
2016-04-01T05:31:10.208Z,0
2016-04-01T05:32:13.257Z,0
2016-04-01T05:33:09.932Z,0
2016-04-01T05:34:13.076Z,0
2016-04-01T05:35:10.093Z,0
2016-04-01T05:36:15.784Z,0
2016-04-01T05:37:09.693Z,0
2016-04-01T05:38:09.868Z,0
2016-04-01T05:39:09.621Z,0
2016-04-01T05:40:09.576Z,0
2016-04-01T05:41:12.516Z,0
2016-04-01T05:42:09.692Z,0
2016-04-01T05:43:09.428Z,0
2016-04-01T05:44:09.447Z,0
2016-04-01T05:45:09.370Z,0
2016-04-01T05:46:09.608Z,0
2016-04-01T05:47:09.298Z,0
2016-04-01T05:48:09.411Z,0
2016-04-01T05:49:12.178Z,0
2016-04-01T05:50:11.977Z,0
2016-04-01T05:51:09.074Z,0
2016-04-01T05:52:12.046Z,0
2016-04-01T05:53:12.017Z,0
2016-04-01T05:54:12.177Z,0
2016-04-01T05:55:11.913Z,0
2016-04-01T05:56:09.072Z,0
2016-04-01T05:57:11.810Z,0
2016-04-01T05:58:11.812Z,0
2016-04-01T05:59:08.908Z,0
2016-04-01T06:00:11.677Z,0
2016-04-01T06:01:08.757Z,0
2016-04-01T06:02:08.636Z,0
2016-04-01T06:03:08.543Z,0
2016-04-01T06:04:08.546Z,0
2016-04-01T06:05:11.674Z,0
2016-04-01T06:06:11.895Z,0
2016-04-01T06:07:11.227Z,0
2016-04-01T06:08:08.311Z,0
2016-04-01T06:09:08.267Z,0
2016-04-01T06:10:08.395Z,0
2016-04-01T06:11:11.367Z,0
2016-04-01T06:12:09.229Z,0
2016-04-01T06:13:14.278Z,0
2016-04-01T06:14:11.422Z,0
2016-04-01T06:15:08.003Z,0
2016-04-01T06:16:07.927Z,0
2016-04-01T06:17:13.961Z,0
2016-04-01T06:18:07.854Z,0
2016-04-01T06:19:08.123Z,0
2016-04-01T06:20:07.797Z,0
2016-04-01T06:21:08.034Z,0
2016-04-01T06:22:10.676Z,0
2016-04-01T06:23:07.633Z,0
2016-04-01T06:24:10.793Z,0
2016-04-01T06:25:13.529Z,0
2016-04-01T06:26:13.484Z,0
2016-04-01T06:27:07.628Z,0
2016-04-01T06:28:07.615Z,0
2016-04-01T06:29:07.353Z,0
2016-04-01T06:30:07.323Z,0
2016-04-01T06:31:07.248Z,0
2016-04-01T06:32:07.236Z,0
2016-04-01T06:33:07.161Z,0
2016-04-01T06:34:10.132Z,0
2016-04-01T06:35:10.275Z,0
2016-04-01T06:36:06.997Z,0
2016-04-01T06:37:07.062Z,0
2016-04-01T06:38:06.924Z,0
2016-04-01T06:39:07.552Z,0
2016-04-01T06:40:06.836Z,0
2016-04-01T06:41:06.791Z,0
2016-04-01T06:42:06.747Z,0
2016-04-01T06:43:09.905Z,0
2016-04-01T06:44:06.674Z,0
2016-04-01T06:45:09.630Z,0
2016-04-01T06:46:06.585Z,0
2016-04-01T06:47:06.526Z,0
2016-04-01T06:48:06.466Z,0
2016-04-01T06:49:06.422Z,0
2016-04-01T06:50:06.394Z,0
2016-04-01T06:51:06.318Z,0
2016-04-01T06:52:09.712Z,0
2016-04-01T06:53:06.246Z,0
2016-04-01T06:54:09.420Z,0
2016-04-01T06:55:09.157Z,0
2016-04-01T06:56:15.316Z,0
2016-04-01T06:57:12.053Z,0
2016-04-01T06:58:12.024Z,0
2016-04-01T06:59:06.011Z,0
2016-04-01T07:00:05.951Z,0
2016-04-01T07:01:11.892Z,0
2016-04-01T07:02:05.926Z,0
2016-04-01T07:03:11.819Z,0
2016-04-01T07:04:05.837Z,0
2016-04-01T07:05:06.434Z,0
2016-04-01T07:06:05.687Z,0
2016-04-01T07:07:08.923Z,0
2016-04-01T07:08:05.660Z,0
2016-04-01T07:09:08.757Z,0
2016-04-01T07:10:08.775Z,0
2016-04-01T07:11:08.466Z,0
2016-04-01T07:12:05.422Z,0
2016-04-01T07:13:05.361Z,0
2016-04-01T07:14:05.614Z,0
2016-04-01T07:15:05.257Z,0
2016-04-01T07:16:05.229Z,0
2016-04-01T07:17:05.200Z,0
2016-04-01T07:18:05.125Z,0
2016-04-01T07:19:05.191Z,0
2016-04-01T07:20:05.225Z,0
2016-04-01T07:21:05.086Z,0
2016-04-01T07:22:05.026Z,0
2016-04-01T07:23:04.873Z,0
2016-04-01T07:24:04.861Z,0
2016-04-01T07:25:07.831Z,0
2016-04-01T07:26:04.756Z,0
2016-04-01T07:27:07.946Z,0
2016-04-01T07:28:05.199Z,0
2016-04-01T07:29:07.623Z,0
2016-04-01T07:30:04.580Z,0
2016-04-01T07:31:04.629Z,0
2016-04-01T07:32:04.490Z,0
2016-04-01T07:33:13.463Z,0
2016-04-01T07:34:04.418Z,0
2016-04-01T07:35:04.406Z,0
2016-04-01T07:36:07.299Z,0
2016-04-01T07:37:07.255Z,0
2016-04-01T07:38:04.382Z,0
2016-04-01T07:39:04.401Z,0
2016-04-01T07:40:03.982Z,0
2016-04-01T07:41:04.109Z,0
2016-04-01T07:42:04.440Z,0
2016-04-01T07:43:04.162Z,0
2016-04-01T07:44:04.151Z,0
2016-04-01T07:45:03.887Z,0
2016-04-01T07:46:06.797Z,0
2016-04-01T07:47:06.753Z,0
2016-04-01T07:48:04.412Z,0
2016-04-01T07:49:03.659Z,0
2016-04-01T07:50:03.656Z,0
2016-04-01T07:51:04.012Z,0
2016-04-01T07:52:03.838Z,0
2016-04-01T07:53:03.617Z,0
2016-04-01T07:54:06.429Z,0
2016-04-01T07:55:03.836Z,0
2016-04-01T07:56:07.759Z,0
2016-04-01T07:57:03.947Z,0
2016-04-01T07:58:03.402Z,0
2016-04-01T07:59:03.216Z,0
2016-04-01T08:00:05.906Z,0
2016-04-01T08:01:03.173Z,0
2016-04-01T08:02:07.144Z,0
2016-04-01T08:03:03.630Z,0
2016-04-01T08:04:04.617Z,0
2016-04-01T08:05:02.884Z,0
2016-04-01T08:06:03.027Z,0
2016-04-01T08:07:02.827Z,0
2016-04-01T08:08:05.860Z,0
2016-04-01T08:09:02.941Z,0
2016-04-01T08:10:05.849Z,0
2016-04-01T08:11:02.837Z,0
2016-04-01T08:12:03.262Z,0
2016-04-01T08:13:02.952Z,0
2016-04-01T08:14:02.329Z,0
2016-04-01T08:15:03.004Z,0
2016-04-01T08:16:02.382Z,0
2016-04-01T08:17:02.337Z,0
2016-04-01T08:18:02.340Z,0
2016-04-01T08:19:02.531Z,0
2016-04-01T08:20:02.205Z,0
2016-04-01T08:21:02.442Z,0
2016-04-01T08:22:02.116Z,0
2016-04-01T08:23:05.166Z,0
2016-04-01T08:24:05.028Z,0
2016-04-01T08:25:05.265Z,0
2016-04-01T08:26:02.439Z,0
2016-04-01T08:27:05.301Z,0
2016-04-01T08:28:05.038Z,0
2016-04-01T08:29:05.151Z,0
2016-04-01T08:30:10.778Z,0
2016-04-01T08:31:01.669Z,0
2016-04-01T08:32:04.675Z,0
2016-04-01T08:33:04.958Z,0
2016-04-01T08:34:01.786Z,0
2016-04-01T08:35:07.949Z,0
2016-04-01T08:36:01.605Z,0
2016-04-01T08:37:01.591Z,0
2016-04-01T08:38:01.594Z,0
2016-04-01T08:39:04.459Z,0
2016-04-01T08:40:01.521Z,0
2016-04-01T08:41:04.433Z,0
2016-04-01T08:42:01.308Z,0
2016-04-01T08:43:07.470Z,0
2016-04-01T08:44:01.470Z,0
2016-04-01T08:45:01.395Z,0
2016-04-01T08:46:01.023Z,0
2016-04-01T08:47:01.009Z,0
2016-04-01T08:48:00.949Z,0
2016-04-01T08:49:00.906Z,0
2016-04-01T08:50:01.111Z,0
2016-04-01T08:51:01.082Z,0
2016-04-01T08:52:04.104Z,0
2016-04-01T08:53:00.729Z,0
2016-04-01T08:54:00.965Z,0
2016-04-01T08:55:00.656Z,0
2016-04-01T08:56:03.581Z,0
2016-04-01T08:57:00.723Z,0
2016-04-01T08:58:03.523Z,0
2016-04-01T08:59:03.447Z,0
2016-04-01T09:00:00.481Z,0
2016-04-01T09:01:00.484Z,0
2016-04-01T09:02:06.599Z,0
2016-04-01T09:03:00.724Z,0
2016-04-01T09:04:00.289Z,0
2016-04-01T09:05:00.307Z,0
2016-04-01T09:06:00.138Z,0
2016-04-01T09:07:00.297Z,0
2016-04-01T09:08:00.519Z,0
2016-04-01T09:09:03.568Z,0
2016-04-01T09:10:00.383Z,0
2016-04-01T09:11:05.888Z,0
2016-04-01T09:12:06.220Z,0
2016-04-01T09:12:59.985Z,0
2016-04-01T09:14:00.098Z,0
2016-04-01T09:15:12.024Z,0
2016-04-01T09:15:59.806Z,0
2016-04-01T09:16:59.637Z,0
2016-04-01T09:17:59.546Z,0
2016-04-01T09:19:00.736Z,0
2016-04-01T09:20:05.864Z,0
2016-04-01T09:21:05.445Z,0
2016-04-01T09:22:04.697Z,0
2016-04-01T09:22:59.418Z,0
2016-04-01T09:24:02.358Z,0
2016-04-01T09:24:59.455Z,0
2016-04-01T09:26:02.739Z,0
2016-04-01T09:27:02.616Z,0
2016-04-01T09:27:59.463Z,0
2016-04-01T09:28:59.075Z,0
2016-04-01T09:29:59.218Z,0
2016-04-01T09:31:01.971Z,0
2016-04-01T09:31:59.052Z,0
2016-04-01T09:32:58.899Z,0
2016-04-01T09:33:59.261Z,0
2016-04-01T09:34:58.764Z,0
2016-04-01T09:35:59.094Z,0
2016-04-01T09:36:58.816Z,0
2016-04-01T09:38:04.709Z,0
2016-04-01T09:38:59.383Z,0
2016-04-01T09:39:58.558Z,0
2016-04-01T09:40:59.623Z,0
2016-04-01T09:41:58.516Z,0
2016-04-01T09:42:59.144Z,0
2016-04-01T09:43:58.819Z,0
2016-04-01T09:45:01.571Z,0
2016-04-01T09:45:58.965Z,0
2016-04-01T09:46:58.640Z,0
2016-04-01T09:48:01.361Z,0
2016-04-01T09:49:01.161Z,0
2016-04-01T09:50:01.132Z,0
2016-04-01T09:50:58.260Z,0
2016-04-01T09:51:57.996Z,0
2016-04-01T09:52:57.999Z,0
2016-04-01T09:54:00.298Z,0
2016-04-01T09:55:03.129Z,0
2016-04-01T09:55:58.054Z,0
2016-04-01T09:56:57.932Z,0
2016-04-01T09:57:58.012Z,0
2016-04-01T09:58:57.672Z,0
2016-04-01T09:59:57.675Z,0
2016-04-01T10:00:57.614Z,0
2016-04-01T10:01:57.867Z,0
2016-04-01T10:02:57.713Z,124
2016-04-01T10:03:57.513Z,184
2016-04-01T10:04:57.547Z,256
2016-04-01T10:06:04.705Z,284
2016-04-01T10:06:57.396Z,296
2016-04-01T10:07:57.399Z,300
2016-04-01T10:08:57.839Z,300
2016-04-01T10:09:57.311Z,304
2016-04-01T10:10:57.798Z,304
2016-04-01T10:11:57.238Z,304
2016-04-01T10:12:57.522Z,304
2016-04-01T10:13:57.618Z,300
2016-04-01T10:14:57.012Z,300
2016-04-01T10:15:56.935Z,304
2016-04-01T10:16:57.251Z,304
2016-04-01T10:17:56.832Z,304
2016-04-01T10:18:58.616Z,304
2016-04-01T10:19:56.901Z,308
2016-04-01T10:20:56.778Z,308
2016-04-01T10:21:56.906Z,308
2016-04-01T10:22:56.595Z,308
2016-04-01T10:23:56.536Z,304
2016-04-01T10:24:56.632Z,308
2016-04-01T10:25:56.728Z,304
2016-04-01T10:26:56.606Z,308
2016-04-01T10:27:57.577Z,304
2016-04-01T10:28:59.721Z,304
2016-04-01T10:29:56.317Z,308
2016-04-01T10:30:56.508Z,304
2016-04-01T10:31:56.166Z,316
2016-04-01T10:32:58.747Z,316
2016-04-01T10:33:56.172Z,312
2016-04-01T10:34:56.019Z,304
2016-04-01T10:35:56.053Z,304
2016-04-01T10:36:56.009Z,300
2016-04-01T10:37:56.089Z,300
2016-04-01T10:38:59.342Z,300
2016-04-01T10:39:59.844Z,296
2016-04-01T10:40:56.847Z,300
2016-04-01T10:41:58.912Z,296
2016-04-01T10:42:55.883Z,296
2016-04-01T10:43:56.730Z,300
2016-04-01T10:44:55.671Z,308
2016-04-01T10:45:55.580Z,304
2016-04-01T10:46:58.551Z,308
2016-04-01T10:47:56.585Z,304
2016-04-01T10:48:56.149Z,308
2016-04-01T10:49:55.434Z,308
2016-04-01T10:50:55.420Z,304
2016-04-01T10:51:55.282Z,304
2016-04-01T10:52:55.270Z,300
2016-04-01T10:53:55.163Z,304
2016-04-01T10:54:58.120Z,308
2016-04-01T10:55:55.293Z,304
2016-04-01T10:56:55.046Z,308
2016-04-01T10:57:56.752Z,304
2016-04-01T10:58:57.926Z,308
2016-04-01T10:59:54.992Z,308
2016-04-01T11:00:54.839Z,308
2016-04-01T11:01:54.966Z,308
2016-04-01T11:02:54.781Z,308
2016-04-01T11:03:54.878Z,308
2016-04-01T11:04:57.677Z,308
2016-04-01T11:05:54.602Z,308
2016-04-01T11:06:55.604Z,308
2016-04-01T11:07:54.569Z,308
2016-04-01T11:08:55.056Z,308
2016-04-01T11:09:54.731Z,308
2016-04-01T11:10:55.796Z,308
2016-04-01T11:11:54.580Z,312
2016-04-01T11:12:54.880Z,308
2016-04-01T11:13:57.335Z,304
2016-04-01T11:14:57.213Z,308
2016-04-01T11:15:57.356Z,308
2016-04-01T11:16:54.109Z,308
2016-04-01T11:17:54.253Z,312
2016-04-01T11:18:54.052Z,312
2016-04-01T11:19:54.383Z,312
2016-04-01T11:20:56.932Z,308
2016-04-01T11:21:54.122Z,308
2016-04-01T11:22:57.046Z,308
2016-04-01T11:23:53.815Z,304
2016-04-01T11:24:53.927Z,304
2016-04-01T11:25:56.883Z,308
2016-04-01T11:26:53.652Z,304
2016-04-01T11:27:53.716Z,308
2016-04-01T11:28:53.782Z,304
2016-04-01T11:29:53.503Z,300
2016-04-01T11:30:53.521Z,300
2016-04-01T11:31:53.414Z,296
2016-04-01T11:32:53.401Z,296
2016-04-01T11:33:53.889Z,296
2016-04-01T11:34:56.439Z,292
2016-04-01T11:35:56.801Z,296
2016-04-01T11:36:53.584Z,296
2016-04-01T11:37:53.462Z,304
2016-04-01T11:38:53.120Z,296
2016-04-01T11:39:55.327Z,288
2016-04-01T11:40:52.986Z,304
2016-04-01T11:41:56.004Z,312
2016-04-01T11:42:53.023Z,308
2016-04-01T11:43:53.572Z,304
2016-04-01T11:44:55.934Z,304
2016-04-01T11:45:53.015Z,304
2016-04-01T11:46:54.158Z,304
2016-04-01T11:47:52.770Z,312
2016-04-01T11:48:53.444Z,308
2016-04-01T11:49:52.683Z,304
2016-04-01T11:50:55.841Z,304
2016-04-01T11:51:52.563Z,304
2016-04-01T11:52:52.628Z,308
2016-04-01T11:53:52.724Z,308
2016-04-01T11:54:52.711Z,304
2016-04-01T11:55:55.557Z,304
2016-04-01T11:56:52.560Z,280
2016-04-01T11:57:52.265Z,304
2016-04-01T11:58:52.221Z,300
2016-04-01T11:59:52.193Z,304
2016-04-01T12:00:55.821Z,304
2016-04-01T12:01:52.152Z,304
2016-04-01T12:02:52.060Z,288
2016-04-01T12:03:54.954Z,288
2016-04-01T12:04:52.706Z,292
2016-04-01T12:05:55.115Z,288
2016-04-01T12:06:51.884Z,292
2016-04-01T12:07:52.043Z,292
2016-04-01T12:08:54.781Z,296
2016-04-01T12:09:51.798Z,296
2016-04-01T12:10:54.723Z,304
2016-04-01T12:11:51.647Z,304
2016-04-01T12:12:51.853Z,304
2016-04-01T12:13:51.839Z,304
2016-04-01T12:14:57.842Z,304
2016-04-01T12:15:51.470Z,308
2016-04-01T12:16:52.005Z,308
2016-04-01T12:17:51.476Z,308
2016-04-01T12:18:55.870Z,304
2016-04-01T12:19:51.685Z,312
2016-04-01T12:20:51.266Z,308
2016-04-01T12:21:54.705Z,304
2016-04-01T12:22:51.224Z,304
2016-04-01T12:23:51.366Z,304
2016-04-01T12:24:51.385Z,304
2016-04-01T12:25:51.372Z,304
2016-04-01T12:26:52.515Z,304
2016-04-01T12:27:51.175Z,304
2016-04-01T12:28:50.896Z,308
2016-04-01T12:29:50.993Z,304
2016-04-01T12:30:50.901Z,296
2016-04-01T12:31:54.076Z,296
2016-04-01T12:32:51.048Z,296
2016-04-01T12:33:54.223Z,292
2016-04-01T12:34:50.897Z,292
2016-04-01T12:35:50.696Z,292
2016-04-01T12:36:51.574Z,292
2016-04-01T12:37:50.858Z,292
2016-04-01T12:38:50.736Z,296
2016-04-01T12:39:51.754Z,296
2016-04-01T12:40:50.491Z,296
2016-04-01T12:41:51.384Z,288
2016-04-01T12:42:50.402Z,300
2016-04-01T12:43:50.296Z,304
2016-04-01T12:44:53.548Z,296
2016-04-01T12:45:55.755Z,292
2016-04-01T12:46:50.616Z,296
2016-04-01T12:47:50.900Z,300
2016-04-01T12:48:53.481Z,300
2016-04-01T12:49:50.186Z,296
2016-04-01T12:50:54.236Z,296
2016-04-01T12:51:49.957Z,300
2016-04-01T12:52:50.038Z,300
2016-04-01T12:53:53.369Z,300
2016-04-01T12:54:49.888Z,296
2016-04-01T12:55:50.157Z,304
2016-04-01T12:56:50.800Z,304
2016-04-01T12:57:53.412Z,300
2016-04-01T12:58:53.274Z,304
2016-04-01T12:59:50.245Z,300
2016-04-01T13:00:49.561Z,300
2016-04-01T13:01:49.751Z,300
2016-04-01T13:02:52.722Z,304
2016-04-01T13:03:52.663Z,300
2016-04-01T13:04:49.337Z,300
2016-04-01T13:05:49.637Z,296
2016-04-01T13:06:53.389Z,300
2016-04-01T13:07:49.782Z,300
2016-04-01T13:08:49.737Z,296
2016-04-01T13:09:49.365Z,304
2016-04-01T13:10:49.118Z,304
2016-04-01T13:11:49.981Z,300
2016-04-01T13:12:49.999Z,296
2016-04-01T13:13:49.001Z,300
2016-04-01T13:14:49.192Z,300
2016-04-01T13:15:48.913Z,296
2016-04-01T13:16:48.853Z,308
2016-04-01T13:17:48.825Z,300
2016-04-01T13:18:54.874Z,300
2016-04-01T13:19:48.908Z,300
2016-04-01T13:20:52.707Z,304
2016-04-01T13:21:51.758Z,304
2016-04-01T13:22:48.604Z,304
2016-04-01T13:23:51.497Z,300
2016-04-01T13:24:49.093Z,304
2016-04-01T13:25:52.205Z,300
2016-04-01T13:26:50.115Z,300
2016-04-01T13:27:48.711Z,304
2016-04-01T13:28:48.527Z,300
2016-04-01T13:29:49.374Z,304
2016-04-01T13:30:51.157Z,300
2016-04-01T13:31:48.957Z,296
2016-04-01T13:32:51.443Z,304
2016-04-01T13:33:52.087Z,300
2016-04-01T13:34:48.464Z,300
2016-04-01T13:35:51.217Z,300
2016-04-01T13:36:47.954Z,304
2016-04-01T13:37:47.894Z,300
2016-04-01T13:38:48.007Z,276
2016-04-01T13:39:50.790Z,276
2016-04-01T13:40:56.746Z,272
2016-04-01T13:41:47.733Z,280
2016-04-01T13:42:47.751Z,280
2016-04-01T13:43:51.332Z,276
2016-04-01T13:44:47.756Z,280
2016-04-01T13:45:50.697Z,280
2016-04-01T13:46:50.746Z,276
2016-04-01T13:47:47.546Z,272
2016-04-01T13:48:50.611Z,280
2016-04-01T13:49:47.645Z,276
2016-04-01T13:50:48.805Z,272
2016-04-01T13:51:48.150Z,280
2016-04-01T13:52:47.919Z,272
2016-04-01T13:53:53.890Z,272
2016-04-01T13:54:47.722Z,272
2016-04-01T13:55:56.989Z,268
2016-04-01T13:56:47.961Z,268
2016-04-01T13:57:47.777Z,268
2016-04-01T13:58:47.669Z,272
2016-04-01T13:59:47.938Z,276
2016-04-01T14:00:47.143Z,272
2016-04-01T14:01:46.943Z,292
2016-04-01T14:02:49.586Z,296
2016-04-01T14:03:46.854Z,292
2016-04-01T14:04:46.467Z,292
2016-04-01T14:05:46.657Z,288
2016-04-01T14:06:49.691Z,288
2016-04-01T14:07:46.788Z,292
2016-04-01T14:08:46.618Z,296
2016-04-01T14:09:46.481Z,304
2016-04-01T14:10:46.686Z,304
2016-04-01T14:11:55.704Z,304
2016-04-01T14:12:46.738Z,308
2016-04-01T14:13:46.834Z,304
2016-04-01T14:14:49.337Z,304
2016-04-01T14:15:46.653Z,304
2016-04-01T14:16:46.156Z,300
2016-04-01T14:17:46.127Z,308
2016-04-01T14:18:52.426Z,308
2016-04-01T14:19:46.272Z,300
2016-04-01T14:20:45.978Z,296
2016-04-01T14:21:52.059Z,292
2016-04-01T14:22:50.234Z,296
2016-04-01T14:23:46.362Z,300
2016-04-01T14:24:54.880Z,300
2016-04-01T14:25:50.445Z,308
2016-04-01T14:26:48.994Z,308